Time;durP1;ratioP1;P1;durP2;ratioP2;P2;SDS_P1;SDS_P2;PMS_P1;PMS_P2;Temp;Humidity;BMP_temperature;BMP_pressure;BME280_temperature;BME280_humidity;BME280_pressure;Samples;Min_cycle;Max_cycle;Signal;HPM_P1;HPM_P2
2022/01/25 00:08:50;;;;;;;22.20;8.70;;;;;;;-6.02;70.20;101964.48;126250;1099;104326;-84
2022/01/25 00:25:56;;;;;;;16.70;6.60;;;;;;;-6.04;69.94;101956.63;126146;1099;104236;-85
2022/01/25 00:28:44;;;;;;;20.80;8.23;;;;;;;-6.03;70.42;101953.36;126061;1096;104198;-85
2022/01/25 00:31:17;;;;;;;20.13;8.10;;;;;;;-6.03;70.44;101966.14;126082;1099;104172;-84
2022/01/25 00:33:52;;;;;;;21.17;7.40;;;;;;;-6.02;70.18;101962.84;126092;1099;104150;-84
2022/01/25 00:36:24;;;;;;;21.77;8.47;;;;;;;-6.02;69.64;101955.17;126122;1099;104144;-84
2022/01/25 00:38:59;;;;;;;16.33;6.53;;;;;;;-6.02;69.82;101951.70;126214;1099;104261;-84
2022/01/25 00:41:31;;;;;;;20.27;7.57;;;;;;;-6.00;69.63;101955.36;126297;1099;104234;-84
2022/01/25 00:44:04;;;;;;;19.77;7.40;;;;;;;-6.00;70.31;101952.80;126311;1099;104233;-84
2022/01/25 00:46:36;;;;;;;18.97;7.63;;;;;;;-5.99;69.88;101954.64;126373;1099;104155;-84
2022/01/25 00:49:13;;;;;;;19.27;7.93;;;;;;;-5.98;69.99;101948.82;126226;1098;104328;-84
2022/01/25 00:52:05;;;;;;;23.33;8.07;;;;;;;-6.01;69.77;101949.34;126282;1099;104188;-84
2022/01/25 00:54:40;;;;;;;19.40;7.40;;;;;;;-6.02;69.74;101947.50;126395;1099;104139;-84
2022/01/25 00:57:15;;;;;;;19.80;7.70;;;;;;;-6.00;70.07;101942.58;126296;1099;104232;-84
2022/01/25 00:59:47;;;;;;;21.07;7.67;;;;;;;-6.00;70.08;101946.08;126334;1096;104217;-84
2022/01/25 01:02:19;;;;;;;19.13;7.50;;;;;;;-6.00;69.44;101935.85;126316;1096;104150;-83
2022/01/25 01:04:50;;;;;;;19.10;7.83;;;;;;;-6.00;69.89;101943.52;126313;1099;104360;-84
2022/01/25 01:07:23;;;;;;;21.40;7.87;;;;;;;-6.00;69.54;101940.96;126296;1099;104146;-84
2022/01/25 01:09:55;;;;;;;18.47;7.40;;;;;;;-6.00;69.83;101935.85;126277;1096;104150;-84
2022/01/25 01:12:55;;;;;;;20.37;6.93;;;;;;;-5.97;70.10;101945.52;126333;1099;104140;-84
2022/01/25 01:15:31;;;;;;;22.03;7.70;;;;;;;-5.99;70.38;101942.77;126380;1099;104153;-84
2022/01/25 01:29:29;;;;;;;19.30;7.27;;;;;;;-5.97;69.31;101936.23;126195;1099;104163;-84
2022/01/25 01:32:17;;;;;;;19.83;6.87;;;;;;;-6.00;69.75;101935.85;126208;1099;104183;-83
2022/01/25 01:37:58;;;;;;;20.80;8.17;;;;;;;-5.99;69.56;101929.98;126156;1099;104884;-84
2022/01/25 01:43:32;;;;;;;20.80;7.83;;;;;;;-6.00;69.39;101929.80;126234;1099;104313;-84
2022/01/25 01:46:22;;;;;;;18.93;7.73;;;;;;;-6.02;69.58;101924.50;126249;1099;104591;-84
2022/01/25 01:48:56;;;;;;;20.20;7.90;;;;;;;-6.03;69.97;101926.86;126233;1099;104284;-84
2022/01/25 01:51:33;;;;;;;19.60;7.80;;;;;;;-6.03;69.97;101924.30;125668;1099;104210;-84
2022/01/25 01:54:13;;;;;;;21.10;8.37;;;;;;;-5.98;69.14;101930.93;126178;1099;104188;-84
2022/01/25 01:56:45;;;;;;;19.53;8.27;;;;;;;-5.99;69.77;101927.44;126300;1099;104294;-84
2022/01/25 01:59:19;;;;;;;23.83;7.73;;;;;;;-5.99;69.21;101931.64;126357;1099;104198;-84
2022/01/25 02:01:52;;;;;;;22.37;8.33;;;;;;;-6.04;69.22;101930.17;126268;1096;104188;-84
2022/01/25 02:04:26;;;;;;;20.40;7.30;;;;;;;-6.08;69.11;101923.73;126353;1096;104239;-84
2022/01/25 02:06:57;;;;;;;21.17;7.77;;;;;;;-6.10;70.01;101919.18;126349;1096;104143;-83
2022/01/25 02:09:32;;;;;;;23.43;8.50;;;;;;;-6.16;69.31;101907.45;126202;1096;104277;-84
2022/01/25 02:12:06;;;;;;;20.67;7.27;;;;;;;-6.17;68.96;101905.64;126306;1096;104662;-84
2022/01/25 02:14:40;;;;;;;20.33;8.17;;;;;;;-6.20;69.89;101905.26;126369;1099;104150;-83
2022/01/25 02:17:26;;;;;;;21.97;7.80;;;;;;;-6.21;69.28;101905.06;126285;1099;104277;-84
2022/01/25 02:22:59;;;;;;;21.43;8.23;;;;;;;-6.21;69.98;101903.41;126302;1096;111933;-84
2022/01/25 02:25:31;;;;;;;23.83;8.30;;;;;;;-6.22;69.29;101888.80;126371;1096;104185;-84
2022/01/25 02:28:02;;;;;;;23.23;8.80;;;;;;;-6.24;69.30;101895.37;126355;1096;104144;-84
2022/01/25 02:30:34;;;;;;;20.40;7.80;;;;;;;-6.25;69.51;101885.86;126229;1096;104211;-84
2022/01/25 02:33:06;;;;;;;;;;;;;;;-6.29;69.90;101883.67;126294;1099;104277;-84
2022/01/25 02:35:40;;;;;;;22.57;8.50;;;;;;;-6.30;70.04;101880.92;126387;1099;104145;-84
2022/01/25 02:38:13;;;;;;;22.58;8.20;;;;;;;-6.32;69.41;101883.29;126343;1099;104150;-84
2022/01/25 02:40:44;;;;;;;20.53;8.00;;;;;;;-6.34;69.65;101875.44;126337;1099;104607;-84
2022/01/25 02:43:18;;;;;;;21.57;8.07;;;;;;;-6.37;69.62;101882.71;126275;1096;104258;-84
2022/01/25 02:46:07;;;;;;;20.40;8.43;;;;;;;-6.40;70.33;101873.77;126369;1096;104192;-84
2022/01/25 02:48:55;;;;;;;20.77;8.17;;;;;;;-6.43;69.95;101873.38;126329;1096;104200;-84
2022/01/25 02:51:29;;;;;;;21.03;8.03;;;;;;;-6.47;70.25;101868.60;126300;1096;104832;-84
2022/01/25 02:54:01;;;;;;;21.70;7.57;;;;;;;-6.49;70.23;101875.17;126352;1099;104631;-84
2022/01/25 02:56:34;;;;;;;24.13;8.73;;;;;;;-6.50;69.35;101866.56;126346;1099;104143;-84
2022/01/25 02:59:07;;;;;;;21.50;7.93;;;;;;;-6.51;69.56;101865.66;126331;1099;104246;-84
2022/01/25 03:01:40;;;;;;;20.83;8.20;;;;;;;-6.52;69.50;101866.38;126263;1099;104265;-84
2022/01/25 03:04:15;;;;;;;20.95;8.55;;;;;;;-6.51;69.04;101864.77;126352;1096;104162;-84
2022/01/25 03:06:47;;;;;;;23.40;8.57;;;;;;;-6.46;70.00;101866.23;126360;1095;104165;-83
2022/01/25 03:09:19;;;;;;;26.83;9.57;;;;;;;-6.44;69.99;101868.98;126343;1096;104257;-84
2022/01/25 03:11:53;;;;;;;23.93;9.10;;;;;;;-6.45;69.41;101864.59;126307;1096;104204;-84
2022/01/25 03:14:30;;;;;;;24.60;8.88;;;;;;;-6.46;69.35;101868.80;126381;1096;104140;-85
2022/01/25 03:17:09;;;;;;;23.67;8.73;;;;;;;-6.47;70.34;101871.16;126300;1099;104306;-84
2022/01/25 03:19:48;;;;;;;24.60;9.27;;;;;;;-6.47;70.06;101860.94;126340;1099;104895;-84
2022/01/25 03:22:34;;;;;;;23.20;8.40;;;;;;;-6.49;69.09;101849.63;126268;1099;104172;-84
2022/01/25 03:25:07;;;;;;;23.77;8.03;;;;;;;-6.54;69.33;101843.95;126398;1096;104185;-84
2022/01/25 03:27:40;;;;;;;22.13;9.00;;;;;;;-6.58;69.12;101851.94;126354;1096;104262;-85
2022/01/25 03:30:13;;;;;;;22.80;8.77;;;;;;;-6.61;68.92;101839.69;126374;1099;104236;-84
2022/01/25 03:32:45;;;;;;;19.73;7.33;;;;;;;-6.64;68.89;101846.97;126265;1096;104147;-84
2022/01/25 03:35:16;;;;;;;23.53;9.13;;;;;;;-6.64;70.05;101846.97;126241;1099;104172;-84
2022/01/25 03:37:48;;;;;;;22.43;8.37;;;;;;;-6.64;70.09;101846.06;126213;1099;104159;-84
2022/01/25 03:40:19;;;;;;;21.77;8.97;;;;;;;-6.66;70.02;101844.97;126245;1099;104252;-84
2022/01/25 03:42:51;;;;;;;23.63;8.67;;;;;;;-6.66;69.25;101843.31;126293;1099;102961;-84
2022/01/25 03:45:29;;;;;;;20.63;8.40;;;;;;;-6.68;69.35;101839.66;126253;1099;104570;-84
2022/01/25 03:49:48;;;;;;;24.13;9.40;;;;;;;-6.67;69.24;101840.56;126242;1096;104177;-84
2022/01/25 03:50:55;;;;;;;24.90;9.28;;;;;;;-6.65;70.02;101842.60;126380;1096;104168;-84
2022/01/25 03:53:27;;;;;;;22.40;8.37;;;;;;;-6.64;69.93;101846.97;126268;1096;104191;-84
2022/01/25 03:56:01;;;;;;;20.80;8.30;;;;;;;-6.64;69.25;101846.97;126332;1099;104149;-84
2022/01/25 03:58:32;;;;;;;25.90;9.05;;;;;;;-6.66;69.12;101840.77;126341;1099;104136;-84
2022/01/25 04:01:04;;;;;;;22.07;8.67;;;;;;;-6.69;68.69;101843.83;126283;1099;104271;-83
2022/01/25 04:03:40;;;;;;;25.17;9.40;;;;;;;-6.71;69.58;101839.28;126270;1099;104162;-84
2022/01/25 04:06:17;;;;;;;24.00;8.83;;;;;;;-6.74;69.74;101851.66;126372;1096;104150;-84
2022/01/25 04:08:49;;;;;;;20.90;8.43;;;;;;;-6.75;69.40;101845.61;126281;1099;104136;-84
2022/01/25 04:11:21;;;;;;;23.17;8.83;;;;;;;-6.75;69.04;101845.61;126196;1096;104169;-84
2022/01/25 04:13:53;;;;;;;21.83;8.17;;;;;;;-6.75;69.87;101847.27;126122;1098;104169;-84
2022/01/25 04:16:31;;;;;;;24.43;8.70;;;;;;;-6.76;69.11;101841.26;126154;1099;104198;-84
2022/01/25 04:19:08;;;;;;;21.17;8.67;;;;;;;-6.74;69.37;101846.55;126158;1098;104162;-85
2022/01/25 04:24:54;;;;;;;22.03;8.70;;;;;;;-6.75;69.09;101834.50;126174;1096;104248;-84
2022/01/25 04:27:27;;;;;;;20.97;7.93;;;;;;;-6.74;69.80;101838.89;126282;1096;104181;-84
2022/01/25 04:30:02;;;;;;;26.17;9.47;;;;;;;-6.75;69.13;101845.61;126311;1096;104147;-84
2022/01/25 04:32:43;;;;;;;22.40;8.13;;;;;;;-6.74;68.95;101832.14;126195;1096;104227;-84
2022/01/25 04:35:29;;;;;;;22.25;9.05;;;;;;;-6.77;68.63;101828.30;126094;1099;104204;-84
2022/01/25 04:49:31;;;;;;;22.67;8.70;;;;;;;-6.91;69.85;101827.47;126332;1096;104156;-84
2022/01/25 04:52:11;;;;;;;24.33;9.67;;;;;;;-6.93;69.21;101836.58;126336;1096;104191;-84
2022/01/25 04:54:51;;;;;;;24.37;9.27;;;;;;;-6.94;69.71;101832.19;126243;1096;104140;-84
2022/01/25 04:57:39;;;;;;;23.50;8.33;;;;;;;-6.96;69.92;101836.19;126329;1099;104219;-84
2022/01/25 05:00:17;;;;;;;24.73;8.60;;;;;;;-6.96;68.75;101836.19;126305;1096;104159;-82
2022/01/25 05:02:53;;;;;;;23.70;8.80;;;;;;;-6.95;69.73;101829.44;126326;1099;104133;-84
2022/01/25 05:05:31;;;;;;;21.43;8.27;;;;;;;-6.95;69.18;101838.03;126308;1098;101974;-83
2022/01/25 05:08:07;;;;;;;21.47;8.20;;;;;;;-6.96;70.12;101837.84;126290;1096;104175;-83
2022/01/25 05:10:49;;;;;;;24.40;8.25;;;;;;;-6.94;68.77;101847.50;126117;1096;104274;-83
2022/01/25 05:13:37;;;;;;;27.43;9.50;;;;;;;-6.94;68.88;101844.04;126050;1096;104286;-83
2022/01/25 05:16:16;;;;;;;20.87;8.37;;;;;;;-6.94;69.28;101833.83;126017;1099;104136;-84
2022/01/25 05:18:50;;;;;;;22.57;8.60;;;;;;;-6.94;69.10;101834.73;126115;1098;104188;-84
2022/01/25 05:24:10;;;;;;;23.53;8.50;;;;;;;-6.93;69.59;101826.37;126137;1099;104196;-83
2022/01/25 05:26:42;;;;;;;21.10;7.43;;;;;;;-6.97;68.83;101842.00;126185;1099;111779;-84
2022/01/25 05:29:13;;;;;;;21.87;8.30;;;;;;;-7.02;69.78;101845.62;126245;1096;104240;-84
2022/01/25 05:31:47;;;;;;;23.50;9.00;;;;;;;-7.02;69.64;101844.72;126332;1096;104188;-84
2022/01/25 05:34:18;;;;;;;22.67;8.63;;;;;;;-7.05;68.86;101830.83;126250;1096;104207;-85
2022/01/25 05:36:52;;;;;;;19.30;7.50;;;;;;;-7.04;68.43;101834.31;125894;1099;104682;-85
2022/01/25 05:39:29;;;;;;;24.90;9.07;;;;;;;-7.05;69.65;101832.47;125937;1099;104267;-85
2022/01/25 05:42:19;;;;;;;24.63;9.40;;;;;;;-7.05;69.18;101829.92;125893;1099;104306;-85
2022/01/25 05:45:00;;;;;;;23.73;7.93;;;;;;;-7.08;68.69;101820.23;125921;1099;104165;-85
2022/01/25 05:47:32;;;;;;;23.67;8.03;;;;;;;-7.08;68.56;101827.89;125819;1099;107997;-84
2022/01/25 05:50:05;;;;;;;24.43;8.80;;;;;;;-7.09;69.38;101817.48;125948;1099;104461;-85
2022/01/25 05:52:37;;;;;;;23.77;9.60;;;;;;;-7.08;68.94;101812.58;126067;1099;104283;-84
2022/01/25 05:55:11;;;;;;;24.63;10.43;;;;;;;-7.05;69.28;101812.06;126175;1098;104313;-84
2022/01/25 05:57:42;;;;;;;24.60;10.48;;;;;;;-7.04;69.51;101811.35;125368;1099;104172;-85
2022/01/25 06:00:15;;;;;;;26.47;9.87;;;;;;;-7.01;68.36;101803.15;126165;1098;104217;-85
2022/01/25 06:02:52;;;;;;;22.90;9.57;;;;;;;-7.02;68.31;101808.99;126236;1099;104252;-85
2022/01/25 06:05:25;;;;;;;25.23;9.00;;;;;;;-7.07;69.74;101808.41;125455;1099;104399;-83
2022/01/25 06:07:56;;;;;;;20.60;7.57;;;;;;;-7.09;68.96;101817.48;126265;1099;104233;-84
2022/01/25 06:10:28;;;;;;;25.00;9.20;;;;;;;-7.11;68.73;101818.94;126249;1096;104185;-84
2022/01/25 06:13:00;;;;;;;27.43;10.00;;;;;;;-7.11;68.42;101817.30;126065;1096;104200;-83
2022/01/25 06:15:36;;;;;;;24.93;9.43;;;;;;;-7.09;69.47;101818.42;126038;1096;104137;-84
2022/01/25 06:18:09;;;;;;;22.27;8.48;;;;;;;-7.06;69.20;101810.22;126113;1098;104217;-83
2022/01/25 06:20:41;;;;;;;22.10;8.90;;;;;;;-7.04;69.24;101801.14;126270;1099;104156;-84
2022/01/25 06:23:12;;;;;;;24.13;8.83;;;;;;;-7.02;69.39;101801.34;126074;1099;104150;-84
2022/01/25 06:25:44;;;;;;;26.07;10.77;;;;;;;-7.01;68.93;101798.98;126042;1099;104238;-83
2022/01/25 06:28:20;;;;;;;24.72;10.05;;;;;;;-6.98;69.42;101795.87;126262;1096;104143;-83
2022/01/25 06:30:52;;;;;;;24.97;9.60;;;;;;;-6.96;68.56;101802.11;126260;1096;104185;-83
2022/01/25 06:33:24;;;;;;;24.20;9.20;;;;;;;-6.97;68.71;101813.03;126237;1096;104178;-84
2022/01/25 06:35:56;;;;;;;27.70;10.43;;;;;;;-6.95;68.55;101806.47;126158;1096;104191;-84
2022/01/25 06:38:31;;;;;;;24.33;9.70;;;;;;;-6.98;69.02;101790.77;126050;1099;104155;-82
2022/01/25 06:41:05;;;;;;;24.93;10.17;;;;;;;-6.91;68.90;101791.73;126049;1099;104274;-83
2022/01/25 06:43:40;;;;;;;23.40;9.80;;;;;;;-6.91;69.06;101799.39;126021;1099;104265;-82
2022/01/25 06:46:13;;;;;;;26.57;10.27;;;;;;;-6.93;69.73;101799.95;125931;1099;102853;-83
2022/01/25 06:48:45;;;;;;;26.80;9.87;;;;;;;-6.96;69.67;101799.56;126107;1096;104283;-81
2022/01/25 06:51:18;;;;;;;30.50;12.37;;;;;;;-6.96;69.66;101795.36;126017;1096;104244;-85
2022/01/25 06:53:54;;;;;;;30.73;13.10;;;;;;;-6.96;68.90;101790.25;125699;1099;104312;-84
2022/01/25 06:56:27;;;;;;;28.53;11.13;;;;;;;-6.94;69.15;101793.00;125542;1099;104332;-83
2022/01/25 06:58:58;;;;;;;26.97;10.80;;;;;;;-6.94;68.32;101783.70;125049;1102;104172;-81
2022/01/25 07:01:30;;;;;;;26.67;11.27;;;;;;;-6.95;69.56;101794.65;125108;1100;104242;-84
2022/01/25 07:04:01;;;;;;;27.07;11.07;;;;;;;-6.93;69.58;101790.64;125103;1102;103989;-83
2022/01/25 07:06:36;;;;;;;27.50;10.70;;;;;;;-6.89;68.54;101787.77;125091;1102;104738;-86
2022/01/25 07:09:13;;;;;;;25.17;9.63;;;;;;;-6.88;68.83;101784.47;125041;1102;112551;-83
2022/01/25 07:11:51;;;;;;;25.63;9.97;;;;;;;-6.85;69.66;101785.59;125309;1102;104159;-83
2022/01/25 07:14:27;;;;;;;26.37;11.13;;;;;;;-6.82;68.23;101785.95;125195;1102;104261;-85
2022/01/25 07:17:16;;;;;;;28.03;10.27;;;;;;;-6.81;68.48;101792.89;125169;1099;104319;-84
2022/01/25 07:19:50;;;;;;;23.93;9.97;;;;;;;-6.79;69.24;101781.22;125214;1099;104211;-85
2022/01/25 07:22:26;;;;;;;26.37;10.05;;;;;;;-6.77;69.08;101784.91;125629;1099;104306;-84
2022/01/25 07:25:09;;;;;;;26.73;10.33;;;;;;;-6.75;69.15;101788.55;125154;1099;104159;-83
2022/01/25 07:27:49;;;;;;;25.57;10.10;;;;;;;-6.76;69.48;101773.95;125936;1099;104396;-85
2022/01/25 07:30:25;;;;;;;27.77;11.10;;;;;;;-6.76;69.13;101769.78;125780;1096;104227;-83
2022/01/25 07:33:12;;;;;;;23.97;9.73;;;;;;;-6.74;69.09;101769.97;125934;1096;104131;-84
2022/01/25 07:35:58;;;;;;;25.53;9.87;;;;;;;-6.74;68.33;101772.52;125900;1096;104140;-84
2022/01/25 07:38:58;;;;;;;26.87;10.43;;;;;;;-6.74;68.36;101773.42;125965;1096;102342;-85
2022/01/25 07:44:58;;;;;;;29.07;11.67;;;;;;;-6.68;68.64;101778.39;125848;1099;104024;-85
2022/01/25 07:47:56;;;;;;;26.57;10.67;;;;;;;-6.63;68.72;101782.42;126211;1099;104197;-84
2022/01/25 07:50:35;;;;;;;28.97;11.03;;;;;;;-6.63;68.11;101784.97;126157;1099;111925;-83
2022/01/25 07:53:09;;;;;;;26.90;11.50;;;;;;;-6.61;68.43;101782.61;126004;1099;104299;-84
2022/01/25 07:55:45;;;;;;;29.20;11.87;;;;;;;-6.61;68.72;101780.96;125800;1095;104239;-82
2022/01/25 07:58:22;;;;;;;22.87;9.37;;;;;;;-6.62;68.48;101781.70;125867;1096;104124;-85
2022/01/25 08:00:56;;;;;;;29.20;11.20;;;;;;;-6.67;68.96;101777.64;125785;1099;104242;-83
2022/01/25 08:03:29;;;;;;;25.05;10.30;;;;;;;-6.68;68.68;101773.28;125898;1099;105186;-84
2022/01/25 08:06:03;;;;;;;27.93;11.40;;;;;;;-6.58;68.33;101780.44;126009;1097;104325;-83
2022/01/25 08:08:52;;;;;;;26.57;11.03;;;;;;;-6.47;68.21;101781.77;126004;1098;104374;-82
2022/01/25 08:11:32;;;;;;;26.30;11.17;;;;;;;-6.47;68.07;101785.22;126193;1096;107496;-82
2022/01/25 08:14:22;;;;;;;25.20;10.70;;;;;;;-6.48;68.14;101782.48;126058;1096;104146;-82
2022/01/25 08:16:58;;;;;;;29.93;11.10;;;;;;;-6.46;69.17;101778.50;125917;1096;104259;-82
2022/01/25 08:19:30;;;;;;;26.10;10.38;;;;;;;-6.51;68.24;101773.73;126201;1096;102277;-82
2022/01/25 08:22:04;;;;;;;26.65;11.57;;;;;;;-6.52;67.75;101776.09;126058;1097;104686;-83
2022/01/25 08:24:43;;;;;;;30.43;11.57;;;;;;;-6.44;68.47;101772.83;125830;1099;104338;-83
2022/01/25 08:27:24;;;;;;;25.93;11.07;;;;;;;-6.41;68.73;101780.88;125904;1099;104216;-84
2022/01/25 08:30:01;;;;;;;27.53;11.23;;;;;;;-6.35;67.97;101775.63;125886;1096;104161;-84
2022/01/25 08:32:49;;;;;;;28.77;12.00;;;;;;;-6.28;68.46;101780.73;126100;1099;104245;-82
2022/01/25 08:35:25;;;;;;;24.97;10.20;;;;;;;-6.31;68.31;101772.69;125956;1099;104369;-84
2022/01/25 08:37:56;;;;;;;;;;;;;;;-6.27;68.40;101777.46;126003;1097;104350;-82
2022/01/25 08:40:34;;;;;;;25.57;9.87;;;;;;;-6.23;67.56;101777.13;126048;1099;104139;-82
2022/01/25 08:43:14;;;;;;;28.27;11.50;;;;;;;-6.23;68.78;101771.08;125252;1099;104379;-83
2022/01/25 08:45:53;;;;;;;27.17;10.93;;;;;;;-6.28;67.18;101767.96;125383;1099;104293;-81
2022/01/25 08:48:30;;;;;;;30.13;11.87;;;;;;;-6.30;68.66;101777.09;125186;1099;104297;-83
2022/01/25 08:51:02;;;;;;;25.00;11.27;;;;;;;-6.27;67.47;101776.56;125144;1099;102404;-82
2022/01/25 08:53:44;;;;;;;29.33;11.77;;;;;;;-6.23;68.57;101769.46;125754;1099;104200;-83
2022/01/25 08:56:22;;;;;;;28.90;11.30;;;;;;;-6.15;68.11;101775.52;125182;1099;104182;-82
2022/01/25 08:59:00;;;;;;;27.83;11.20;;;;;;;-6.10;67.44;101769.31;125302;1099;104139;-81
2022/01/25 09:01:33;;;;;;;30.63;11.57;;;;;;;-6.11;67.46;101764.91;125721;1099;104280;-81
2022/01/25 09:04:14;;;;;;;30.57;12.17;;;;;;;-6.06;67.57;101762.92;125797;1099;104579;-83
2022/01/25 09:07:12;;;;;;;29.10;11.10;;;;;;;-6.09;67.83;101757.44;125784;1099;104131;-83
2022/01/25 09:09:47;;;;;;;28.67;10.70;;;;;;;-6.05;67.79;101751.98;126089;1099;104200;-82
2022/01/25 09:12:23;;;;;;;27.55;10.43;;;;;;;-5.99;67.00;101752.73;126089;1096;104130;-82
2022/01/25 09:15:10;;;;;;;29.25;10.65;;;;;;;-5.84;67.13;101744.32;126266;1096;104130;-83
2022/01/25 09:17:42;;;;;;;23.40;9.70;;;;;;;-5.78;67.16;101739.95;126166;1096;104174;-82
2022/01/25 09:20:16;;;;;;;24.67;10.30;;;;;;;-5.81;67.67;101734.46;126004;1096;104153;-81
2022/01/25 09:22:50;;;;;;;26.60;11.22;;;;;;;-5.75;67.26;101729.15;126226;1099;111210;-82
2022/01/25 09:25:24;;;;;;;29.17;10.83;;;;;;;-5.70;67.27;101732.26;126235;1098;104296;-82
2022/01/25 09:28:02;;;;;;;26.70;10.30;;;;;;;-5.70;66.71;101734.81;125965;1099;104207;-82
2022/01/25 09:30:44;;;;;;;26.10;11.20;;;;;;;-5.89;66.61;101706.14;126013;1099;104306;-82
2022/01/25 09:33:16;;;;;;;28.40;11.10;;;;;;;-5.83;67.08;101719.66;125895;1099;104178;-81
2022/01/25 09:35:52;;;;;;;25.17;10.47;;;;;;;-5.89;66.46;101717.30;125809;1096;104086;-82
2022/01/25 09:38:28;;;;;;;26.33;11.50;;;;;;;-5.87;66.95;101720.05;125969;1096;104189;-79
2022/01/25 09:41:00;;;;;;;22.83;10.07;;;;;;;-5.89;66.65;101719.86;125788;1096;104355;-80
2022/01/25 09:43:33;;;;;;;25.00;10.60;;;;;;;-5.94;66.93;101720.92;125852;1099;106974;-81
2022/01/25 09:46:08;;;;;;;25.83;10.30;;;;;;;-5.99;66.57;101722.05;125967;1099;104267;-81
2022/01/25 09:48:44;;;;;;;24.50;9.70;;;;;;;-5.98;67.26;101718.78;125760;1099;104118;-83
2022/01/25 09:51:26;;;;;;;25.33;9.80;;;;;;;-5.98;66.74;101709.45;125899;1099;104582;-84
2022/01/25 09:54:03;;;;;;;27.37;11.77;;;;;;;-5.98;67.00;101718.78;126007;1095;104165;-82
2022/01/25 09:56:38;;;;;;;26.80;10.83;;;;;;;-6.01;66.18;101719.31;125900;1099;104262;-83
2022/01/25 09:59:29;;;;;;;23.83;9.60;;;;;;;-6.06;65.90;101711.80;125836;1096;104533;-82
2022/01/25 10:02:10;;;;;;;25.07;10.43;;;;;;;-6.02;66.24;101711.45;125845;1096;104185;-82
2022/01/25 10:04:51;;;;;;;26.87;11.27;;;;;;;-5.91;66.77;101693.17;125969;1099;104246;-80
2022/01/25 10:07:55;;;;;;;25.30;10.13;;;;;;;-5.79;67.00;101697.20;125979;1099;102297;-82
2022/01/25 10:10:46;;;;;;;24.60;10.88;;;;;;;-5.72;66.39;101688.61;126095;1099;105367;-83
2022/01/25 10:13:37;;;;;;;25.95;10.00;;;;;;;-5.50;66.40;101684.42;126116;1099;104207;-82
2022/01/25 10:16:24;;;;;;;28.00;11.13;;;;;;;-5.41;65.89;101679.45;125924;1095;104157;-81
2022/01/25 10:19:03;;;;;;;26.53;10.47;;;;;;;-5.43;65.79;101674.16;126149;1099;102155;-84
2022/01/25 10:22:03;;;;;;;24.53;10.57;;;;;;;-5.44;66.04;101656.07;125689;1096;104275;-82
2022/01/25 10:24:53;;;;;;;27.37;12.20;;;;;;;-5.38;65.66;101661.00;125742;1098;104300;-83
2022/01/25 10:30:25;;;;;;;28.10;12.30;;;;;;;-5.22;65.72;101645.80;125882;1098;104146;-81
2022/01/25 10:33:23;;;;;;;26.63;12.27;;;;;;;-5.12;66.34;101646.14;125980;1096;104185;-82
2022/01/25 10:36:15;;;;;;;26.90;12.37;;;;;;;-5.07;65.51;101630.56;125927;1099;102816;-82
2022/01/25 10:38:52;;;;;;;28.07;11.90;;;;;;;-5.04;66.21;101619.77;125982;1099;104195;-82
2022/01/25 10:41:31;;;;;;;34.47;14.47;;;;;;;-4.95;65.82;101625.05;125881;1096;104204;-81
2022/01/25 10:44:09;;;;;;;30.40;13.07;;;;;;;-4.90;65.77;101608.56;125966;1099;104344;-81
2022/01/25 10:46:46;;;;;;;27.87;12.33;;;;;;;-4.86;65.45;101613.31;126070;1099;104159;-82
2022/01/25 10:49:26;;;;;;;31.20;12.77;;;;;;;-4.86;65.31;101610.75;125914;1099;104216;-81
2022/01/25 10:52:04;;;;;;;31.73;12.60;;;;;;;-4.87;65.09;101609.81;126088;1099;104631;-81
2022/01/25 10:54:41;;;;;;;32.00;12.83;;;;;;;-4.81;65.16;101613.84;125897;1099;102791;-82
2022/01/25 10:57:24;;;;;;;31.47;13.43;;;;;;;-4.77;64.71;101605.75;125884;1099;102904;-82
2022/01/25 11:00:10;;;;;;;31.80;13.93;;;;;;;-4.77;65.40;101599.00;125999;1099;104185;-83
2022/01/25 11:02:55;;;;;;;28.90;13.23;;;;;;;-4.77;65.05;101609.24;126070;1099;104182;-85
2022/01/25 11:05:41;;;;;;;29.90;13.10;;;;;;;-4.78;64.33;101611.62;125809;1099;104185;-84
2022/01/25 11:08:23;;;;;;;27.47;12.97;;;;;;;-4.78;64.50;101597.16;125793;1099;104174;-83
2022/01/25 11:11:06;;;;;;;30.25;13.60;;;;;;;-4.80;64.08;101593.53;125904;1099;104134;-82
2022/01/25 11:13:48;;;;;;;30.53;13.43;;;;;;;-4.85;64.46;101578.37;125866;1099;104159;-83
2022/01/25 11:16:33;;;;;;;31.50;14.07;;;;;;;-4.93;63.56;101583.52;125701;1099;104292;-83
2022/01/25 11:21:58;;;;;;;33.63;14.17;;;;;;;-4.85;65.47;101563.00;125733;1099;102762;-81
2022/01/25 11:24:34;;;;;;;32.53;14.43;;;;;;;-4.79;64.53;101556.02;127307;1099;101680;-81
2022/01/25 11:27:08;;;;;;;34.90;14.83;;;;;;;-4.77;64.08;101572.45;126459;1099;104166;-80
2022/01/25 11:29:47;;;;;;;37.67;15.93;;;;;;;-4.79;64.45;101566.27;125520;1099;104152;-81
2022/01/25 11:32:26;;;;;;;35.70;14.17;;;;;;;-4.84;64.00;101563.17;127288;1098;101653;-82
2022/01/25 11:35:02;;;;;;;31.53;14.63;;;;;;;-4.91;64.31;101551.34;125668;1099;104267;-79
2022/01/25 11:37:42;;;;;;;32.27;13.63;;;;;;;-5.00;64.17;101550.28;125656;1099;104185;-82
2022/01/25 11:40:32;;;;;;;30.40;13.77;;;;;;;-5.07;63.88;101546.09;125824;1097;104188;-81
2022/01/25 11:43:08;;;;;;;32.23;14.43;;;;;;;-5.15;64.02;101540.85;125854;1096;104724;-81
2022/01/25 11:45:48;;;;;;;31.60;13.80;;;;;;;-5.22;64.01;101546.89;125860;1099;104405;-82
2022/01/25 11:48:37;;;;;;;30.27;13.67;;;;;;;-5.27;64.46;101543.84;125885;1099;104133;-81
2022/01/25 11:51:16;;;;;;;31.67;13.67;;;;;;;-5.30;64.88;101548.60;125804;1099;104201;-82
2022/01/25 11:53:54;;;;;;;35.67;13.93;;;;;;;-5.29;64.54;101539.27;126320;1099;104175;-80
2022/01/25 11:56:37;;;;;;;33.53;13.70;;;;;;;-5.23;64.46;101532.30;126035;1096;104233;-79
2022/01/25 11:59:22;;;;;;;38.33;15.03;;;;;;;-5.25;63.92;101527.00;126209;1096;104217;-81
2022/01/25 12:02:01;;;;;;;34.43;14.63;;;;;;;-5.20;63.89;101519.85;125722;1099;104226;-82
2022/01/25 12:04:48;;;;;;;31.03;13.97;;;;;;;-5.20;64.13;101522.41;125867;1098;104284;-82
2022/01/25 12:07:35;;;;;;;32.13;14.53;;;;;;;-5.21;63.95;101518.02;125977;1097;104166;-80
2022/01/25 12:10:34;;;;;;;29.17;11.73;;;;;;;-5.19;63.83;101519.09;125942;1099;104233;-85
2022/01/25 12:13:26;;;;;;;31.47;13.43;;;;;;;-5.15;64.35;101512.70;125660;1099;104344;-84
2022/01/25 12:16:28;;;;;;;32.03;12.47;;;;;;;-5.09;64.94;101511.74;125865;1099;104373;-83
2022/01/25 12:19:06;;;;;;;29.20;12.95;;;;;;;-5.12;64.01;101521.63;125898;1099;104265;-83
2022/01/25 12:22:07;;;;;;;29.80;12.77;;;;;;;-5.13;64.31;101517.23;126109;1099;104217;-82
2022/01/25 12:25:11;;;;;;;30.50;12.97;;;;;;;-5.11;63.53;101520.91;125867;1099;104284;-83
2022/01/25 12:28:07;;;;;;;32.03;13.43;;;;;;;-5.11;64.08;101517.41;125891;1099;104363;-83
2022/01/25 12:30:42;;;;;;;29.30;12.63;;;;;;;-5.07;63.89;101510.26;126093;1099;104175;-83
2022/01/25 12:33:27;;;;;;;30.72;12.55;;;;;;;-5.05;63.84;101502.75;125907;1099;105684;-83
2022/01/25 12:36:09;;;;;;;27.63;12.37;;;;;;;-5.01;63.67;101498.92;125844;1099;104223;-82
2022/01/25 12:38:49;;;;;;;27.83;10.77;;;;;;;-4.99;63.65;101505.11;125894;1099;104328;-82
2022/01/25 12:41:30;;;;;;;32.47;12.80;;;;;;;-4.99;63.64;101488.09;125925;1099;104322;-84
2022/01/25 12:44:10;;;;;;;27.53;11.53;;;;;;;-4.99;63.89;101488.09;126100;1099;104221;-82
2022/01/25 12:46:47;;;;;;;28.10;12.10;;;;;;;-4.97;63.98;101484.08;125896;1099;104663;-84
2022/01/25 12:49:29;;;;;;;28.13;12.53;;;;;;;-5.00;63.84;101483.73;125914;1099;104175;-83
2022/01/25 12:52:18;;;;;;;32.60;12.20;;;;;;;-5.05;63.22;101487.39;126009;1099;104399;-83
2022/01/25 12:55:59;;;;;;;28.83;11.30;;;;;;;-5.08;63.58;101485.42;125877;1099;104274;-84
2022/01/25 12:59:15;;;;;;;;;;;;;;;;;;;;;